Golden Blaze — SVAG6 — position and weather

sailwx.info

Track history (hours):
 
Tides and Currents Weather Stations Pressure Air Temp Water Temp Dewpoint Dewpoint Depression Visibility Wind Speed Wind Dir Waves Ship Positions

Golden Blaze

Last reported at 2014-Sep-22 09:33 UTC. Time now 2014-Sep-22 10:16 UTC.
Position N 36°23' E 025°26'.

Length 74 m; draft 3 m.

Type: Ship. MMSI: 241148000.

Date/timePositionNaut miles runAvg speedWind from/ knotsBaromVisibWave heightAir tempDewpointWater temp
2014-Sep-22 09:33N 36°23' E 025°26'0 0.0
2014-Sep-22 08:33N 36°23' E 025°26'1313.0
2014-Sep-22 07:34N 36°12' E 025°18'2727.2
2014-Sep-22 06:33N 35°45' E 025°13'2423.8
2014-Sep-22 05:32N 35°21' E 025°08'0 0.0
2014-Sep-22 04:33N 35°21' E 025°08'0 0.0
2014-Sep-22 03:33N 35°21' E 025°08'0 0.0
2014-Sep-22 01:33N 35°21' E 025°08'0 0.0
2014-Sep-21 20:15N 35°21' E 025°08'28 7.0
2014-Sep-21 16:16N 35°48' E 025°16'1927.6
2014-Sep-21 15:34N 36°07' E 025°19'1716.8
2014-Sep-21 14:33N 36°23' E 025°26'0 0.0
2014-Sep-21 13:33N 36°23' E 025°26'0 0.0
2014-Sep-21 12:33N 36°23' E 025°26'0 0.0
2014-Sep-21 11:33N 36°23' E 025°26'0 0.0
2014-Sep-21 10:33N 36°23' E 025°26'0 0.0
2014-Sep-21 09:30N 36°23' E 025°26'0 0.1
2014-Sep-21 08:33N 36°23' E 025°26'1716.8
2014-Sep-21 07:33N 36°08' E 025°17'2726.6
2014-Sep-21 06:33N 35°42' E 025°12'19 1.3
2014-Sep-20 16:27N 35°55' E 024°56'2426.7
2014-Sep-20 15:33N 36°14' E 025°14'1311.9
2014-Sep-20 14:26N 36°23' E 025°26'2 2.4
2014-Sep-20 13:33N 36°24' E 025°23'0 0.0
2014-Sep-20 12:34N 36°24' E 025°23'0 0.0
2014-Sep-20 11:34N 36°24' E 025°23'0 0.0
2014-Sep-20 10:33N 36°24' E 025°23'0 0.0
2014-Sep-20 09:34N 36°24' E 025°23'2 1.6
2014-Sep-20 08:33N 36°23' E 025°25'1918.6
2014-Sep-20 07:33N 36°10' E 025°10'21 1.4
2014-Sep-19 16:33N 35°49' E 025°13'2726.9
2014-Sep-19 15:34N 36°15' E 025°20'8 8.0
2014-Sep-19 14:34N 36°23' E 025°24'2 2.4
2014-Sep-19 13:32N 36°23' E 025°21'0 0.0
2014-Sep-19 12:32N 36°23' E 025°21'0 0.0
2014-Sep-19 11:33N 36°23' E 025°21'2 2.3
2014-Sep-19 10:33N 36°24' E 025°23'0 0.0
2014-Sep-19 09:34N 36°24' E 025°23'2 2.0
2014-Sep-19 08:33N 36°23' E 025°26'1919.5
2014-Sep-19 07:34N 36°05' E 025°16'15 1.0
2014-Sep-18 16:28N 35°51' E 025°14'2021.3
2014-Sep-18 15:33N 36°10' E 025°18'1414.2
2014-Sep-18 14:33N 36°23' E 025°26'0 0.0
2014-Sep-18 13:31N 36°23' E 025°26'0 0.0
2014-Sep-18 12:33N 36°23' E 025°26'0 0.0
2014-Sep-18 11:33N 36°23' E 025°26'0 0.0
2014-Sep-18 10:33N 36°23' E 025°26'0 0.0
2014-Sep-18 09:31N 36°23' E 025°26'0 0.1
2014-Sep-18 08:33N 36°23' E 025°26'2322.9
2014-Sep-18 07:33N 36°02' E 025°17'15 1.0
2014-Sep-17 16:15N 35°47' E 025°14'3721.9
2014-Sep-17 14:32N 36°23' E 025°26'4 3.2
2014-Sep-17 13:14N 36°23' E 025°21'0 0.0
2014-Sep-17 12:14N 36°23' E 025°21'0 0.0
2014-Sep-17 11:17N 36°23' E 025°21'0 0.0
2014-Sep-17 10:06N 36°23' E 025°21'0 0.0
2014-Sep-17 09:30N 36°23' E 025°21'33 0.8
2014-Sep-15 16:14N 35°50' E 025°15'1826.7
2014-Sep-15 15:34N 36°08' E 025°19'1616.1
2014-Sep-15 14:33N 36°23' E 025°26'0 0.0
2014-Sep-15 13:33N 36°23' E 025°26'0 0.0
2014-Sep-15 12:32N 36°23' E 025°26'0 0.0
2014-Sep-15 11:33N 36°23' E 025°26'0 0.0
2014-Sep-15 10:34N 36°23' E 025°26'0 0.0
2014-Sep-15 09:33N 36°23' E 025°26'0 0.0
2014-Sep-15 08:34N 36°23' E 025°26'1413.7
2014-Sep-15 07:33N 36°11' E 025°18'2726.6
2014-Sep-15 06:33N 35°44' E 025°13'24 2.5
2014-Sep-14 21:08N 35°21' E 025°08'24 5.2
2014-Sep-14 16:31N 35°44' E 025°13'2627.1
2014-Sep-14 15:34N 36°10' E 025°19'1514.7
2014-Sep-14 14:33N 36°23' E 025°26'2 1.9
2014-Sep-14 13:33N 36°24' E 025°23'0 0.0
2014-Sep-14 12:33N 36°24' E 025°23'0 0.0
2014-Sep-14 11:33N 36°24' E 025°23'0 0.0
2014-Sep-14 10:33N 36°24' E 025°23'0 0.0
2014-Sep-14 09:33N 36°24' E 025°23'0 0.3
2014-Sep-14 08:33N 36°23' E 025°24'1515.5
2014-Sep-14 07:34N 36°09' E 025°18'2626.3
2014-Sep-14 06:33N 35°43' E 025°13'17 1.2
2014-Sep-13 16:28N 35°52' E 024°55'2224.4
2014-Sep-13 15:34N 36°10' E 025°10'1817.7
2014-Sep-13 14:33N 36°23' E 025°26'2 2.0
2014-Sep-13 13:33N 36°24' E 025°23'0 0.0
2014-Sep-13 12:33N 36°24' E 025°23'0 0.0
2014-Sep-13 11:33N 36°24' E 025°23'0 0.0
2014-Sep-13 10:33N 36°24' E 025°23'0 0.0
2014-Sep-13 09:33N 36°24' E 025°23'0 0.0
2014-Sep-13 08:33N 36°24' E 025°23'1312.7
2014-Sep-13 07:34N 36°14' E 025°14'2625.9
2014-Sep-13 06:33N 35°53' E 024°55'17 1.2
2014-Sep-12 16:21N 35°48' E 025°14'2126.7
2014-Sep-12 15:33N 36°08' E 025°19'1616.0
2014-Sep-12 14:34N 36°23' E 025°26'2 1.9
2014-Sep-12 13:33N 36°24' E 025°23'0 0.0
2014-Sep-12 12:33N 36°24' E 025°23'0 0.0
2014-Sep-12 11:33N 36°24' E 025°23'0 0.0
2014-Sep-12 10:33N 36°24' E 025°23'0 0.0
2014-Sep-12 09:33N 36°24' E 025°23'  
Track history (hours):
 
Tides and Currents Weather Stations Pressure Air Temp Water Temp Dewpoint Dewpoint Depression Visibility Wind Speed Wind Dir Waves Ship Positions

Golden Blaze

Last reported at 2014-Sep-22 09:33 UTC. Time now 2014-Sep-22 10:16 UTC.
Position N 36°23' E 025°26'.

Length 74 m; draft 3 m.

Type: Ship. MMSI: 241148000.

Date/timePositionNaut miles runAvg speedWind from/ knotsBaromVisibWave heightAir tempDewpointWater temp
2014-Sep-22 09:33N 36°23' E 025°26'0 0.0
2014-Sep-22 08:33N 36°23' E 025°26'1313.0
2014-Sep-22 07:34N 36°12' E 025°18'2727.2
2014-Sep-22 06:33N 35°45' E 025°13'2423.8
2014-Sep-22 05:32N 35°21' E 025°08'0 0.0
2014-Sep-22 04:33N 35°21' E 025°08'0 0.0
2014-Sep-22 03:33N 35°21' E 025°08'0 0.0
2014-Sep-22 01:33N 35°21' E 025°08'0 0.0
2014-Sep-21 20:15N 35°21' E 025°08'28 7.0
2014-Sep-21 16:16N 35°48' E 025°16'1927.6
2014-Sep-21 15:34N 36°07' E 025°19'1716.8
2014-Sep-21 14:33N 36°23' E 025°26'0 0.0
2014-Sep-21 13:33N 36°23' E 025°26'0 0.0
2014-Sep-21 12:33N 36°23' E 025°26'0 0.0
2014-Sep-21 11:33N 36°23' E 025°26'0 0.0
2014-Sep-21 10:33N 36°23' E 025°26'0 0.0
2014-Sep-21 09:30N 36°23' E 025°26'0 0.1
2014-Sep-21 08:33N 36°23' E 025°26'1716.8
2014-Sep-21 07:33N 36°08' E 025°17'2726.6
2014-Sep-21 06:33N 35°42' E 025°12'19 1.3
2014-Sep-20 16:27N 35°55' E 024°56'2426.7
2014-Sep-20 15:33N 36°14' E 025°14'1311.9
2014-Sep-20 14:26N 36°23' E 025°26'2 2.4
2014-Sep-20 13:33N 36°24' E 025°23'0 0.0
2014-Sep-20 12:34N 36°24' E 025°23'0 0.0
2014-Sep-20 11:34N 36°24' E 025°23'0 0.0
2014-Sep-20 10:33N 36°24' E 025°23'0 0.0
2014-Sep-20 09:34N 36°24' E 025°23'2 1.6
2014-Sep-20 08:33N 36°23' E 025°25'1918.6
2014-Sep-20 07:33N 36°10' E 025°10'21 1.4
2014-Sep-19 16:33N 35°49' E 025°13'2726.9
2014-Sep-19 15:34N 36°15' E 025°20'8 8.0
2014-Sep-19 14:34N 36°23' E 025°24'2 2.4
2014-Sep-19 13:32N 36°23' E 025°21'0 0.0
2014-Sep-19 12:32N 36°23' E 025°21'0 0.0
2014-Sep-19 11:33N 36°23' E 025°21'2 2.3
2014-Sep-19 10:33N 36°24' E 025°23'0 0.0
2014-Sep-19 09:34N 36°24' E 025°23'2 2.0
2014-Sep-19 08:33N 36°23' E 025°26'1919.5
2014-Sep-19 07:34N 36°05' E 025°16'15 1.0
2014-Sep-18 16:28N 35°51' E 025°14'2021.3
2014-Sep-18 15:33N 36°10' E 025°18'1414.2
2014-Sep-18 14:33N 36°23' E 025°26'0 0.0
2014-Sep-18 13:31N 36°23' E 025°26'0 0.0
2014-Sep-18 12:33N 36°23' E 025°26'0 0.0
2014-Sep-18 11:33N 36°23' E 025°26'0 0.0
2014-Sep-18 10:33N 36°23' E 025°26'0 0.0
2014-Sep-18 09:31N 36°23' E 025°26'0 0.1
2014-Sep-18 08:33N 36°23' E 025°26'2322.9
2014-Sep-18 07:33N 36°02' E 025°17'15 1.0
2014-Sep-17 16:15N 35°47' E 025°14'3721.9
2014-Sep-17 14:32N 36°23' E 025°26'4 3.2
2014-Sep-17 13:14N 36°23' E 025°21'0 0.0
2014-Sep-17 12:14N 36°23' E 025°21'0 0.0
2014-Sep-17 11:17N 36°23' E 025°21'0 0.0
2014-Sep-17 10:06N 36°23' E 025°21'0 0.0
2014-Sep-17 09:30N 36°23' E 025°21'33 0.8
2014-Sep-15 16:14N 35°50' E 025°15'1826.7
2014-Sep-15 15:34N 36°08' E 025°19'1616.1
2014-Sep-15 14:33N 36°23' E 025°26'0 0.0
2014-Sep-15 13:33N 36°23' E 025°26'0 0.0
2014-Sep-15 12:32N 36°23' E 025°26'0 0.0
2014-Sep-15 11:33N 36°23' E 025°26'0 0.0
2014-Sep-15 10:34N 36°23' E 025°26'0 0.0
2014-Sep-15 09:33N 36°23' E 025°26'0 0.0
2014-Sep-15 08:34N 36°23' E 025°26'1413.7
2014-Sep-15 07:33N 36°11' E 025°18'2726.6
2014-Sep-15 06:33N 35°44' E 025°13'24 2.5
2014-Sep-14 21:08N 35°21' E 025°08'24 5.2
2014-Sep-14 16:31N 35°44' E 025°13'2627.1
2014-Sep-14 15:34N 36°10' E 025°19'1514.7
2014-Sep-14 14:33N 36°23' E 025°26'2 1.9
2014-Sep-14 13:33N 36°24' E 025°23'0 0.0
2014-Sep-14 12:33N 36°24' E 025°23'0 0.0
2014-Sep-14 11:33N 36°24' E 025°23'0 0.0
2014-Sep-14 10:33N 36°24' E 025°23'0 0.0
2014-Sep-14 09:33N 36°24' E 025°23'0 0.3
2014-Sep-14 08:33N 36°23' E 025°24'1515.5
2014-Sep-14 07:34N 36°09' E 025°18'2626.3
2014-Sep-14 06:33N 35°43' E 025°13'17 1.2
2014-Sep-13 16:28N 35°52' E 024°55'2224.4
2014-Sep-13 15:34N 36°10' E 025°10'1817.7
2014-Sep-13 14:33N 36°23' E 025°26'2 2.0
2014-Sep-13 13:33N 36°24' E 025°23'0 0.0
2014-Sep-13 12:33N 36°24' E 025°23'0 0.0
2014-Sep-13 11:33N 36°24' E 025°23'0 0.0
2014-Sep-13 10:33N 36°24' E 025°23'0 0.0
2014-Sep-13 09:33N 36°24' E 025°23'0 0.0
2014-Sep-13 08:33N 36°24' E 025°23'1312.7
2014-Sep-13 07:34N 36°14' E 025°14'2625.9
2014-Sep-13 06:33N 35°53' E 024°55'17 1.2
2014-Sep-12 16:21N 35°48' E 025°14'2126.7
2014-Sep-12 15:33N 36°08' E 025°19'1616.0
2014-Sep-12 14:34N 36°23' E 025°26'2 1.9
2014-Sep-12 13:33N 36°24' E 025°23'0 0.0
2014-Sep-12 12:33N 36°24' E 025°23'0 0.0
2014-Sep-12 11:33N 36°24' E 025°23'0 0.0
2014-Sep-12 10:33N 36°24' E 025°23'0 0.0
2014-Sep-12 09:33N 36°24' E 025°23'  

Dump ship's entire track history